createdAt,value
2022-11-03T00:02:22.337Z,101348.31
2022-11-03T00:04:50.713Z,101343.94
2022-11-03T00:07:21.817Z,101339.53
2022-11-03T00:09:50.345Z,101335.19
2022-11-03T00:12:18.671Z,101332.53
2022-11-03T00:14:47.209Z,101323.78
2022-11-03T00:17:15.468Z,101319.41
2022-11-03T00:19:43.723Z,101304.50
2022-11-03T00:22:13.304Z,101311.53
2022-11-03T00:24:41.582Z,101306.25
2022-11-03T00:27:09.816Z,101307.13
2022-11-03T00:29:38.129Z,101309.75
2022-11-03T00:32:08.385Z,101304.53
2022-11-03T00:34:36.695Z,101310.66
2022-11-03T00:37:05.129Z,101314.19
2022-11-03T00:39:37.681Z,101323.84
2022-11-03T00:42:07.256Z,101319.44
2022-11-03T00:44:35.742Z,101322.09
2022-11-03T00:47:04.614Z,101315.94
2022-11-03T00:49:32.898Z,101308.88
2022-11-03T00:52:01.269Z,101291.34
2022-11-03T00:54:29.562Z,101294.81
2022-11-03T00:56:57.788Z,101299.19
2022-11-03T00:59:26.015Z,101296.56
2022-11-03T01:01:54.750Z,101279.84
2022-11-03T01:04:41.857Z,101274.56
2022-11-03T01:07:10.178Z,101271.88
2022-11-03T01:09:41.156Z,101263.97
2022-11-03T01:12:11.408Z,101259.59
2022-11-03T01:14:47.042Z,101256.06
2022-11-03T01:17:24.146Z,101257.81
2022-11-03T01:19:52.989Z,101258.69
2022-11-03T01:22:22.758Z,101256.00
2022-11-03T01:24:52.088Z,101253.34
2022-11-03T01:27:22.444Z,101237.53
2022-11-03T01:29:50.704Z,101238.38
2022-11-03T01:32:19.070Z,101232.19
2022-11-03T01:34:47.446Z,101236.56
2022-11-03T01:37:15.707Z,101219.84
2022-11-03T01:39:43.966Z,101215.47
2022-11-03T01:42:14.662Z,101204.91
2022-11-03T01:44:49.261Z,101211.91
2022-11-03T01:47:27.956Z,101218.94
2022-11-03T01:50:02.722Z,101221.56
2022-11-03T01:52:38.409Z,101216.28
2022-11-03T01:55:20.172Z,101211.00
2022-11-03T01:58:28.451Z,101198.69
2022-11-03T02:00:59.436Z,101196.06
2022-11-03T02:03:31.966Z,101199.59
2022-11-03T02:06:02.011Z,101199.59
2022-11-03T02:08:38.808Z,101190.81
2022-11-03T02:11:26.289Z,101189.06
2022-11-03T02:13:57.033Z,101184.69
2022-11-03T02:16:27.933Z,101187.34
2022-11-03T02:18:58.836Z,101190.84
2022-11-03T02:21:35.623Z,101189.97
2022-11-03T02:24:22.495Z,101175.03
2022-11-03T02:26:55.733Z,101177.63
2022-11-03T02:29:24.341Z,101174.16
2022-11-03T02:32:16.055Z,101172.38
2022-11-03T02:34:54.326Z,101166.22
2022-11-03T02:37:27.539Z,101170.63
2022-11-03T02:40:06.883Z,101168.84
2022-11-03T02:42:38.116Z,101176.72
2022-11-03T02:45:13.265Z,101174.97
2022-11-03T02:47:48.884Z,101174.97
2022-11-03T02:50:20.194Z,101166.19
2022-11-03T02:52:48.945Z,101164.41
2022-11-03T02:55:43.278Z,101153.00
2022-11-03T02:58:40.988Z,101143.34
2022-11-03T03:01:32.696Z,101136.34
2022-11-03T03:04:09.588Z,101145.13
2022-11-03T03:06:51.030Z,101133.72
2022-11-03T03:09:26.615Z,101134.59
2022-11-03T03:11:58.655Z,101142.47
2022-11-03T03:14:37.097Z,101143.34
2022-11-03T03:17:12.700Z,101125.81
2022-11-03T03:20:20.075Z,101144.22
2022-11-03T03:23:09.075Z,101135.44
2022-11-03T03:26:02.380Z,101138.06
2022-11-03T03:28:51.931Z,101133.69
2022-11-03T03:31:22.435Z,101131.91
2022-11-03T03:33:59.776Z,101128.41
2022-11-03T03:36:35.376Z,101119.63
2022-11-03T03:39:06.971Z,101120.50
2022-11-03T03:41:37.275Z,101122.28
2022-11-03T03:44:08.868Z,101109.09
2022-11-03T03:46:42.446Z,101110.84
2022-11-03T03:49:11.179Z,101105.59
2022-11-03T03:51:41.016Z,101109.13
2022-11-03T03:54:09.425Z,101109.13
2022-11-03T03:56:52.045Z,101103.84
2022-11-03T03:59:20.344Z,101106.50
2022-11-03T04:01:50.170Z,101097.75
2022-11-03T04:04:20.207Z,101096.88
2022-11-03T04:06:48.535Z,101095.97
2022-11-03T04:09:16.905Z,101094.22
2022-11-03T04:12:03.827Z,101088.97
2022-11-03T04:14:50.731Z,101078.44
2022-11-03T04:17:39.254Z,101067.06
2022-11-03T04:20:32.028Z,101073.16
2022-11-03T04:23:01.038Z,101076.69
2022-11-03T04:25:30.100Z,101070.56
2022-11-03T04:27:58.382Z,101072.28
2022-11-03T04:30:27.155Z,101059.13
2022-11-03T04:32:55.670Z,101055.59
2022-11-03T04:35:25.695Z,101049.44
2022-11-03T04:38:19.404Z,101052.94
2022-11-03T04:40:58.800Z,101042.41
2022-11-03T04:43:34.108Z,101048.50
2022-11-03T04:46:02.922Z,101046.78
2022-11-03T04:48:33.851Z,101040.63
2022-11-03T04:51:10.962Z,101038.81
2022-11-03T04:53:44.360Z,101040.56
2022-11-03T04:56:20.247Z,101030.00
2022-11-03T04:58:48.724Z,101030.00
2022-11-03T05:01:24.006Z,101019.47
2022-11-03T05:03:54.604Z,101022.09
2022-11-03T05:06:26.777Z,101033.47
2022-11-03T05:08:58.720Z,101021.19
2022-11-03T05:11:42.730Z,101015.94
2022-11-03T05:14:21.136Z,101012.41
2022-11-03T05:16:55.910Z,101008.03
2022-11-03T05:19:31.936Z,101013.25
2022-11-03T05:22:05.714Z,101006.22
2022-11-03T05:24:35.980Z,101007.13
2022-11-03T05:27:09.330Z,101004.47
2022-11-03T05:29:38.619Z,100997.47
2022-11-03T05:32:21.181Z,100997.44
2022-11-03T05:34:52.647Z,101002.72
2022-11-03T05:37:34.116Z,101007.94
2022-11-03T05:40:14.839Z,100993.91
2022-11-03T05:42:46.767Z,101000.00
2022-11-03T05:45:27.710Z,101000.00
2022-11-03T05:47:57.256Z,100993.84
2022-11-03T05:50:29.325Z,100985.06
2022-11-03T05:53:09.989Z,100992.91
2022-11-03T05:55:38.363Z,100985.91
2022-11-03T05:58:31.595Z,100989.41
2022-11-03T06:01:02.635Z,100982.38
2022-11-03T06:03:35.937Z,100985.00
2022-11-03T06:06:29.467Z,100972.69
2022-11-03T06:09:03.364Z,100972.72
2022-11-03T06:11:38.188Z,100977.06
2022-11-03T06:14:24.064Z,100972.66
2022-11-03T06:17:07.584Z,100965.63
2022-11-03T06:19:39.870Z,100977.03
2022-11-03T06:22:20.343Z,100963.00
2022-11-03T06:24:48.754Z,100970.00
2022-11-03T06:27:22.097Z,100970.91
2022-11-03T06:29:53.555Z,100978.78
2022-11-03T06:32:21.913Z,100971.78
2022-11-03T06:34:57.926Z,100963.88
2022-11-03T06:37:31.063Z,100958.66
2022-11-03T06:40:30.360Z,100956.00
2022-11-03T06:42:59.676Z,100952.47
2022-11-03T06:45:29.933Z,100956.00
2022-11-03T06:48:16.427Z,100951.66
2022-11-03T06:50:45.095Z,100949.91
2022-11-03T06:53:24.809Z,100945.47
2022-11-03T06:55:54.209Z,100937.63
2022-11-03T06:58:28.468Z,100938.50
2022-11-03T07:01:03.372Z,100929.75
2022-11-03T07:03:35.291Z,100931.53
2022-11-03T07:06:21.333Z,100934.16
2022-11-03T07:08:52.966Z,100934.19
2022-11-03T07:11:26.001Z,100937.72
2022-11-03T07:14:14.414Z,100935.09
2022-11-03T07:16:47.911Z,100928.09
2022-11-03T07:19:27.756Z,100926.38
2022-11-03T07:22:21.118Z,100932.53
2022-11-03T07:24:55.241Z,100933.44
2022-11-03T07:27:30.238Z,100925.59
2022-11-03T07:30:14.115Z,100924.72
2022-11-03T07:32:42.470Z,100925.59
2022-11-03T07:35:16.980Z,100921.25
2022-11-03T07:37:47.581Z,100908.97
2022-11-03T07:40:23.836Z,100909.91
2022-11-03T07:42:56.884Z,100895.91
2022-11-03T07:45:31.391Z,100897.69
2022-11-03T07:48:05.988Z,100894.22
2022-11-03T07:50:35.166Z,100911.78
2022-11-03T07:53:12.521Z,100907.47
2022-11-03T07:55:40.880Z,100893.44
2022-11-03T07:58:37.153Z,100907.53
2022-11-03T08:01:20.718Z,100883.88
2022-11-03T08:03:49.635Z,100897.91
2022-11-03T08:06:19.955Z,100897.06
2022-11-03T08:08:48.536Z,100890.03
2022-11-03T08:11:17.117Z,100896.22
2022-11-03T08:13:45.410Z,100869.00
2022-11-03T08:16:13.714Z,100879.56
2022-11-03T08:18:42.183Z,100882.19
2022-11-03T08:21:11.051Z,100882.22
2022-11-03T08:23:43.244Z,100875.22
2022-11-03T08:26:15.836Z,100863.88
2022-11-03T08:28:44.435Z,100863.00
2022-11-03T08:31:13.485Z,100871.81
2022-11-03T08:33:41.958Z,100852.53
2022-11-03T08:36:10.767Z,100862.19
2022-11-03T08:38:39.407Z,100838.50
2022-11-03T08:41:07.763Z,100837.63
2022-11-03T08:43:36.170Z,100839.44
2022-11-03T08:46:13.956Z,100838.53
2022-11-03T08:48:46.380Z,100838.56
2022-11-03T08:51:16.336Z,100831.56
2022-11-03T08:53:51.103Z,100832.44
2022-11-03T08:56:22.357Z,100824.53
2022-11-03T08:58:51.322Z,100825.41
2022-11-03T09:01:22.827Z,100816.59
2022-11-03T09:03:51.738Z,100814.00
2022-11-03T09:06:20.079Z,100820.13
2022-11-03T09:11:36.868Z,100818.38
2022-11-03T09:14:05.319Z,100815.72
2022-11-03T09:16:34.337Z,100814.84
2022-11-03T09:19:03.786Z,100810.47
2022-11-03T09:21:33.159Z,100814.84
2022-11-03T09:24:04.500Z,100822.75
2022-11-03T09:26:32.926Z,100819.25
2022-11-03T09:29:01.400Z,100801.63
2022-11-03T09:31:30.115Z,100796.38
2022-11-03T09:33:58.406Z,100795.50
2022-11-03T09:36:26.704Z,100791.09
2022-11-03T09:38:55.426Z,100787.56
2022-11-03T09:41:26.937Z,100787.56
2022-11-03T09:44:04.110Z,100779.63
2022-11-03T09:46:35.450Z,100781.41
2022-11-03T09:49:06.998Z,100764.66
2022-11-03T09:51:43.148Z,100767.28
2022-11-03T09:54:17.371Z,100777.81
2022-11-03T09:56:47.392Z,100761.97
2022-11-03T09:59:21.857Z,100754.94
2022-11-03T10:01:55.743Z,100746.09
2022-11-03T10:04:30.456Z,100746.09
2022-11-03T10:07:05.068Z,100744.28
2022-11-03T10:09:34.389Z,100732.81
2022-11-03T10:12:02.941Z,100734.53
2022-11-03T10:14:31.750Z,100734.50
2022-11-03T10:17:00.686Z,100727.44
2022-11-03T10:19:31.197Z,100719.47
2022-11-03T10:21:59.777Z,100719.41
2022-11-03T10:24:28.057Z,100714.09
2022-11-03T10:26:58.939Z,100716.69
2022-11-03T10:29:28.833Z,100709.56
2022-11-03T10:31:58.804Z,100704.22
2022-11-03T10:34:39.351Z,100698.00
2022-11-03T10:37:11.648Z,100700.56
2022-11-03T10:39:40.211Z,100683.75
2022-11-03T10:42:17.641Z,100683.75
2022-11-03T10:44:46.230Z,100682.84
2022-11-03T10:47:24.974Z,100667.84
2022-11-03T10:49:55.469Z,100667.84
2022-11-03T10:52:27.292Z,100664.34
2022-11-03T10:54:59.473Z,100652.00
2022-11-03T10:57:28.569Z,100645.81
2022-11-03T10:59:57.090Z,100644.06
2022-11-03T11:02:32.164Z,100655.47
2022-11-03T11:05:14.248Z,100630.75
2022-11-03T11:07:45.028Z,100636.00
2022-11-03T11:10:20.634Z,100616.53
2022-11-03T11:13:23.218Z,100623.53
2022-11-03T11:15:57.170Z,100614.66
2022-11-03T11:18:28.530Z,100597.81
2022-11-03T11:20:57.490Z,100600.34
2022-11-03T11:23:28.842Z,100597.63
2022-11-03T11:26:09.637Z,100590.44
2022-11-03T11:28:57.999Z,100587.69
2022-11-03T11:31:34.022Z,100583.19
2022-11-03T11:34:18.312Z,100575.16
2022-11-03T11:36:55.823Z,100570.69
2022-11-03T11:39:26.903Z,100580.34
2022-11-03T11:42:15.302Z,100562.53
2022-11-03T11:44:43.634Z,100544.75
2022-11-03T11:47:41.078Z,100549.91
2022-11-03T11:50:09.697Z,100548.94
2022-11-03T11:52:58.499Z,100550.63
2022-11-03T11:55:36.054Z,100542.69
2022-11-03T11:58:15.855Z,100535.63
2022-11-03T12:01:01.729Z,100532.13
2022-11-03T12:03:43.799Z,100525.16
2022-11-03T12:06:15.532Z,100512.84
2022-11-03T12:08:44.321Z,100510.19
2022-11-03T12:11:45.815Z,100505.84
2022-11-03T12:14:41.514Z,100507.66
2022-11-03T12:17:21.797Z,100501.47
2022-11-03T12:19:54.172Z,100492.66
2022-11-03T12:22:45.506Z,100491.81
2022-11-03T12:25:35.381Z,100493.63
2022-11-03T12:28:03.827Z,100481.25
2022-11-03T12:30:36.858Z,100475.09
2022-11-03T12:33:08.354Z,100465.41
2022-11-03T12:35:37.553Z,100459.22
2022-11-03T12:38:05.881Z,100453.97
2022-11-03T12:40:34.256Z,100440.78
2022-11-03T12:43:02.585Z,100449.66
2022-11-03T12:45:31.016Z,100446.09
2022-11-03T12:47:59.503Z,100442.63
2022-11-03T12:50:37.532Z,100437.38
2022-11-03T12:53:07.074Z,100425.03
2022-11-03T12:56:10.401Z,100426.84
2022-11-03T12:58:41.934Z,100418.91
2022-11-03T13:01:10.408Z,100422.50
2022-11-03T13:03:38.918Z,100410.16
2022-11-03T13:06:10.343Z,100402.28
2022-11-03T13:08:38.705Z,100398.78
2022-11-03T13:11:27.806Z,100397.03
2022-11-03T13:13:56.321Z,100390.91
2022-11-03T13:16:24.627Z,100386.53
2022-11-03T13:18:53.363Z,100366.25
2022-11-03T13:21:21.638Z,100368.97
2022-11-03T13:23:49.940Z,100353.97
2022-11-03T13:26:18.353Z,100355.78
2022-11-03T13:28:47.584Z,100359.34
2022-11-03T13:31:15.896Z,100356.75
2022-11-03T13:33:44.481Z,100344.44
2022-11-03T13:36:12.815Z,100347.13
2022-11-03T13:38:41.512Z,100340.97
2022-11-03T13:41:09.780Z,100340.13
2022-11-03T13:43:38.141Z,100334.00
2022-11-03T13:46:07.803Z,100344.59
2022-11-03T13:49:33.944Z,100326.97
2022-11-03T13:51:26.461Z,100324.38
2022-11-03T13:59:32.483Z,100321.78
2022-11-03T14:04:49.287Z,100324.47
2022-11-03T14:07:17.575Z,100319.19
2022-11-03T14:09:46.041Z,100312.13
2022-11-03T14:12:34.858Z,100313.88
2022-11-03T14:15:11.591Z,100306.81
2022-11-03T14:17:40.617Z,100301.44
2022-11-03T14:20:12.520Z,100298.75
2022-11-03T14:22:41.331Z,100289.00
2022-11-03T14:25:10.227Z,100282.78
2022-11-03T14:27:38.621Z,100283.72
2022-11-03T14:30:07.617Z,100269.59
2022-11-03T14:32:35.969Z,100261.69
2022-11-03T14:35:05.313Z,100260.88
2022-11-03T14:37:33.676Z,100259.19
2022-11-03T14:40:02.073Z,100256.53
2022-11-03T14:42:30.542Z,100238.97
2022-11-03T14:44:59.002Z,100243.44
2022-11-03T14:47:27.614Z,100238.19
2022-11-03T14:49:57.083Z,100233.81
2022-11-03T14:52:25.560Z,100230.34
2022-11-03T14:54:55.019Z,100225.97
2022-11-03T14:57:24.258Z,100214.53
2022-11-03T14:59:53.829Z,100205.75
2022-11-03T15:02:22.886Z,100202.28
2022-11-03T15:04:51.237Z,100197.91
2022-11-03T15:07:19.482Z,100202.38
2022-11-03T15:09:47.859Z,100204.19
2022-11-03T15:12:17.288Z,100195.41
2022-11-03T15:14:45.697Z,100200.72
2022-11-03T15:17:15.218Z,100191.09
2022-11-03T15:19:45.187Z,100188.47
2022-11-03T15:22:17.330Z,100185.84
2022-11-03T15:27:36.712Z,100165.63
2022-11-03T15:30:07.855Z,100168.25
2022-11-03T15:32:37.922Z,100162.16
2022-11-03T15:35:07.159Z,100152.47
2022-11-03T15:37:38.780Z,100139.34
2022-11-03T15:40:07.716Z,100144.66
2022-11-03T15:42:36.283Z,100133.25
2022-11-03T15:45:05.131Z,100135.97
2022-11-03T15:47:34.516Z,100123.66
2022-11-03T15:50:04.655Z,100114.91
2022-11-03T15:52:34.054Z,100121.09
2022-11-03T15:55:02.727Z,100129.03
2022-11-03T15:57:31.021Z,100136.06
2022-11-03T15:59:59.998Z,100139.63
2022-11-03T16:02:41.062Z,100134.31
2022-11-03T16:05:10.389Z,100115.81
2022-11-03T16:07:38.865Z,100105.28
2022-11-03T16:10:09.064Z,100109.69
2022-11-03T16:12:37.614Z,100102.66
2022-11-03T16:15:07.066Z,100103.56
2022-11-03T16:17:35.384Z,100100.94
2022-11-03T16:20:04.025Z,100122.94
2022-11-03T16:22:39.053Z,100100.94
2022-11-03T16:25:12.344Z,100103.59
2022-11-03T16:27:43.399Z,100091.25
2022-11-03T16:30:12.099Z,100087.75
2022-11-03T16:32:40.450Z,100086.03
2022-11-03T16:35:08.918Z,100089.56
2022-11-03T16:37:37.482Z,100086.91
2022-11-03T16:40:06.544Z,100089.56
2022-11-03T16:42:40.656Z,100090.47
2022-11-03T16:45:23.647Z,100085.25
2022-11-03T16:47:52.541Z,100079.13
2022-11-03T16:50:20.874Z,100076.50
2022-11-03T16:52:49.683Z,100075.66
2022-11-03T16:55:19.164Z,100078.31
2022-11-03T16:57:47.503Z,100067.78
2022-11-03T17:00:18.444Z,100061.66
2022-11-03T17:02:47.809Z,100054.63
2022-11-03T17:05:18.797Z,100052.88
2022-11-03T17:07:53.249Z,100045.88
2022-11-03T17:10:23.634Z,100038.81
2022-11-03T17:12:51.912Z,100034.47
2022-11-03T17:15:20.828Z,100024.75
2022-11-03T17:17:49.105Z,100025.63
2022-11-03T17:20:18.196Z,100023.91
2022-11-03T17:22:47.706Z,100025.63
2022-11-03T17:25:16.261Z,100024.78
2022-11-03T17:27:48.370Z,100021.28
2022-11-03T17:30:20.972Z,100017.72
2022-11-03T17:32:53.176Z,100023.91
2022-11-03T17:35:42.817Z,100016.00
2022-11-03T17:38:14.395Z,100008.94
2022-11-03T17:40:45.231Z,100010.69
2022-11-03T17:43:18.616Z,100015.97
2022-11-03T17:45:47.535Z,100021.25
2022-11-03T17:48:15.969Z,100013.31
2022-11-03T17:50:47.687Z,100008.91
2022-11-03T17:53:37.628Z,100017.72
2022-11-03T17:56:28.949Z,100014.22
2022-11-03T17:58:57.673Z,100022.16
2022-11-03T18:01:27.349Z,100016.88
2022-11-03T18:03:56.196Z,100023.09
2022-11-03T18:06:25.635Z,100029.31
2022-11-03T18:08:54.249Z,100022.34
2022-11-03T18:11:47.241Z,100022.41
2022-11-03T18:14:17.926Z,100025.16
2022-11-03T18:16:47.233Z,100023.50
2022-11-03T18:19:17.676Z,100019.16
2022-11-03T18:21:47.332Z,100011.28
2022-11-03T18:24:18.963Z,100008.75
2022-11-03T18:26:47.696Z,100013.19
2022-11-03T18:29:16.031Z,100002.72
2022-11-03T18:31:51.192Z,100002.75
2022-11-03T18:34:24.011Z,100003.72
2022-11-03T18:36:52.897Z,99997.59
2022-11-03T18:39:26.891Z,99992.38
2022-11-03T18:41:58.174Z,99990.72
2022-11-03T18:44:30.864Z,99984.59
2022-11-03T18:46:59.491Z,99984.63
2022-11-03T18:49:28.049Z,99980.31
2022-11-03T18:52:04.028Z,99977.69
2022-11-03T18:54:34.913Z,99984.75
2022-11-03T18:57:11.779Z,99968.09
2022-11-03T18:59:45.927Z,99961.09
2022-11-03T19:02:25.913Z,99955.84
2022-11-03T19:04:54.457Z,99955.00
2022-11-03T19:07:31.515Z,99955.91
2022-11-03T19:10:00.759Z,99948.88
2022-11-03T19:12:29.080Z,99948.91
2022-11-03T19:14:57.592Z,99941.06
2022-11-03T19:17:26.568Z,99937.53
2022-11-03T19:19:55.615Z,99931.41
2022-11-03T19:22:24.026Z,99926.13
2022-11-03T19:24:52.453Z,99920.00
2022-11-03T19:27:25.513Z,99920.94
2022-11-03T19:29:55.881Z,99916.53
2022-11-03T19:32:26.567Z,99912.16
2022-11-03T19:35:02.124Z,99910.44
2022-11-03T19:37:35.374Z,99897.31
2022-11-03T19:40:09.272Z,99892.91
2022-11-03T19:42:37.931Z,99900.81
2022-11-03T19:45:08.878Z,99891.19
2022-11-03T19:47:47.755Z,99887.69
2022-11-03T19:50:25.057Z,99873.63
2022-11-03T19:53:02.899Z,99877.19
2022-11-03T19:55:34.740Z,99865.78
2022-11-03T19:58:25.630Z,99861.38
2022-11-03T20:00:55.169Z,99862.25
2022-11-03T20:03:25.028Z,99849.97
2022-11-03T20:05:56.505Z,99852.56
2022-11-03T20:08:28.998Z,99862.25
2022-11-03T20:10:57.378Z,99857.88
2022-11-03T20:13:30.133Z,99856.09
2022-11-03T20:16:01.362Z,99857.88
2022-11-03T20:18:30.141Z,99859.63
2022-11-03T20:20:59.617Z,99848.22
2022-11-03T20:23:31.213Z,99856.97
2022-11-03T20:26:00.665Z,99850.84
2022-11-03T20:28:32.451Z,99852.63
2022-11-03T20:31:03.677Z,99845.56
2022-11-03T20:33:32.313Z,99841.22
2022-11-03T20:36:02.027Z,99855.28
2022-11-03T20:38:31.086Z,99849.13
2022-11-03T20:41:06.559Z,99844.72
2022-11-03T20:43:38.947Z,99850.00
2022-11-03T20:46:26.636Z,99843.88
2022-11-03T20:48:55.781Z,99838.63
2022-11-03T20:51:32.399Z,99834.22
2022-11-03T20:54:02.832Z,99833.34
2022-11-03T20:56:31.109Z,99840.38
2022-11-03T20:58:59.434Z,99829.84
2022-11-03T21:01:33.045Z,99826.31
2022-11-03T21:04:02.649Z,99823.69
2022-11-03T21:06:32.460Z,99825.44
2022-11-03T21:09:02.205Z,99818.44
2022-11-03T21:11:36.843Z,99815.81
2022-11-03T21:14:12.594Z,99830.78
2022-11-03T21:17:00.221Z,99827.25
2022-11-03T21:20:01.322Z,99812.34
2022-11-03T21:22:55.916Z,99820.28
2022-11-03T21:25:25.121Z,99823.78
2022-11-03T21:27:55.211Z,99816.78
2022-11-03T21:30:23.971Z,99812.38
2022-11-03T21:32:52.249Z,99813.22
2022-11-03T21:35:21.901Z,99802.69
2022-11-03T21:37:50.487Z,99792.16
2022-11-03T21:40:21.451Z,99798.28
2022-11-03T21:43:08.404Z,99793.91
2022-11-03T21:45:37.366Z,99792.16
2022-11-03T21:48:24.836Z,99793.00
2022-11-03T21:50:53.393Z,99795.66
2022-11-03T21:53:21.634Z,99796.56
2022-11-03T21:55:50.163Z,99795.66
2022-11-03T21:58:18.667Z,99800.06
2022-11-03T22:00:47.518Z,99793.00
2022-11-03T22:03:16.005Z,99802.66
2022-11-03T22:05:44.493Z,99811.44
2022-11-03T22:08:13.094Z,99813.19
2022-11-03T22:10:41.450Z,99800.91
2022-11-03T22:13:10.151Z,99801.78
2022-11-03T22:15:57.609Z,99783.34
2022-11-03T22:18:25.904Z,99786.84
2022-11-03T22:21:15.314Z,99782.44
2022-11-03T22:24:02.182Z,99773.66
2022-11-03T22:26:49.149Z,99775.44
2022-11-03T22:29:35.905Z,99777.19
2022-11-03T22:32:06.109Z,99771.88
2022-11-03T22:35:00.779Z,99775.38
2022-11-03T22:40:15.199Z,99782.44
2022-11-03T22:43:02.031Z,99788.56
2022-11-03T22:45:48.779Z,99790.34
2022-11-03T22:48:18.221Z,99796.53
2022-11-03T22:50:47.116Z,99794.75
2022-11-03T22:53:34.112Z,99792.13
2022-11-03T22:56:02.415Z,99786.84
2022-11-03T22:58:30.989Z,99782.44
2022-11-03T23:01:04.510Z,99769.28
2022-11-03T23:03:36.976Z,99780.72
2022-11-03T23:06:11.153Z,99770.16
2022-11-03T23:08:40.987Z,99746.44
2022-11-03T23:11:21.115Z,99728.88
2022-11-03T23:13:54.988Z,99714.84
2022-11-03T23:16:26.232Z,99716.63
2022-11-03T23:19:13.570Z,99710.50
2022-11-03T23:21:44.479Z,99714.91
2022-11-03T23:24:31.749Z,99720.22
2022-11-03T23:27:00.731Z,99714.97
2022-11-03T23:29:29.365Z,99714.06
2022-11-03T23:31:59.838Z,99718.44
2022-11-03T23:34:29.944Z,99707.91
2022-11-03T23:36:59.110Z,99700.00
2022-11-03T23:39:27.394Z,99706.16
2022-11-03T23:41:55.893Z,99709.66
2022-11-03T23:44:24.211Z,99716.69
2022-11-03T23:47:11.064Z,99721.06
2022-11-03T23:49:39.338Z,99726.34
2022-11-03T23:52:08.969Z,99709.66
2022-11-03T23:54:37.308Z,99700.84
2022-11-03T23:57:24.176Z,99704.34
2022-11-03T23:59:52.444Z,99722.78
